createdAt,value
2022-08-05T00:06:06.450Z,23.08
2022-08-05T00:21:14.784Z,22.94
2022-08-05T00:37:11.307Z,22.80
2022-08-05T00:51:51.676Z,22.61
2022-08-05T01:06:55.404Z,22.42
2022-08-05T01:22:18.840Z,22.29
2022-08-05T01:37:54.635Z,22.01
2022-08-05T01:53:01.843Z,21.84
2022-08-05T02:08:05.961Z,21.71
2022-08-05T02:23:12.781Z,21.55
2022-08-05T02:38:20.258Z,21.34
2022-08-05T02:53:39.619Z,21.19
2022-08-05T03:08:44.120Z,21.18
2022-08-05T03:23:48.404Z,21.13
2022-08-05T03:38:53.251Z,21.21
2022-08-05T03:55:52.963Z,21.31
2022-08-05T04:09:36.540Z,21.57
2022-08-05T04:24:44.276Z,21.88
2022-08-05T04:39:52.985Z,22.23
2022-08-05T04:54:58.912Z,22.70
2022-08-05T05:10:18.582Z,23.14
2022-08-05T05:25:21.893Z,23.61
2022-08-05T05:40:36.330Z,24.25
2022-08-05T05:55:51.549Z,25.18
2022-08-05T06:11:02.855Z,25.85
2022-08-05T06:26:20.871Z,26.57
2022-08-05T06:41:24.950Z,27.35
2022-08-05T06:56:28.706Z,27.81
2022-08-05T07:11:37.215Z,28.50
2022-08-05T07:26:44.635Z,29.16
2022-08-05T07:42:14.650Z,29.69
2022-08-05T07:57:22.657Z,30.38
2022-08-05T08:12:49.639Z,31.15
2022-08-05T08:27:53.234Z,31.81
2022-08-05T08:42:56.585Z,31.92
2022-08-05T08:58:03.778Z,32.25
2022-08-05T09:13:08.015Z,32.79
2022-08-05T09:28:15.435Z,33.31
2022-08-05T09:43:41.597Z,33.39
2022-08-05T09:58:57.376Z,33.60
2022-08-05T10:14:22.028Z,34.33
2022-08-05T10:30:06.608Z,34.66
2022-08-05T10:44:51.754Z,34.77
2022-08-05T11:00:19.663Z,34.53
2022-08-05T11:16:00.380Z,35.11
2022-08-05T11:31:07.918Z,35.19
2022-08-05T11:46:15.099Z,35.28
2022-08-05T12:01:21.906Z,35.73
2022-08-05T12:16:32.362Z,35.85
2022-08-05T12:31:42.376Z,36.07
2022-08-05T12:46:55.298Z,36.13
2022-08-05T13:02:09.933Z,36.65
2022-08-05T13:17:21.640Z,36.71
2022-08-05T13:32:33.026Z,36.20
2022-08-05T13:48:09.924Z,36.15
2022-08-05T14:03:03.805Z,36.53
2022-08-05T14:18:14.754Z,36.37
2022-08-05T14:33:23.034Z,36.25
2022-08-05T14:48:33.194Z,40.45
2022-08-05T15:03:39.314Z,38.73
2022-08-05T15:18:42.992Z,36.02
2022-08-05T15:34:05.686Z,35.49
2022-08-05T15:49:23.114Z,35.18
2022-08-05T16:04:30.652Z,34.76
2022-08-05T16:20:04.801Z,34.34
2022-08-05T16:34:58.891Z,34.31
2022-08-05T16:50:03.112Z,33.80
2022-08-05T17:05:08.047Z,33.24
2022-08-05T17:20:14.764Z,33.00
2022-08-05T17:35:20.611Z,32.89
2022-08-05T17:50:28.459Z,32.38
2022-08-05T18:05:36.075Z,31.90
2022-08-05T18:20:39.728Z,31.30
2022-08-05T18:36:00.911Z,30.74
2022-08-05T18:52:05.981Z,29.84
2022-08-05T19:06:48.520Z,29.05
2022-08-05T19:21:51.853Z,28.60
2022-08-05T19:36:55.875Z,28.31
2022-08-05T19:52:09.436Z,28.29
2022-08-05T20:07:46.801Z,27.62
2022-08-05T20:22:48.489Z,27.46
2022-08-05T20:38:07.639Z,27.41
2022-08-05T20:53:16.275Z,27.41
2022-08-05T21:08:42.486Z,27.34
2022-08-05T21:23:47.168Z,27.33
2022-08-05T21:38:50.453Z,27.11
2022-08-05T21:53:59.413Z,27.09
2022-08-05T22:09:13.105Z,27.16
2022-08-05T22:24:40.807Z,26.79
2022-08-05T22:39:55.178Z,26.54
2022-08-05T22:55:00.094Z,26.23
2022-08-05T23:10:03.983Z,25.96
2022-08-05T23:25:08.255Z,25.81
2022-08-05T23:40:14.671Z,25.56
2022-08-05T23:55:19.327Z,25.24
